Liverpool Whitlam Centre, New South Wales

1:34 PM AEDT on February 13, 2016 (GMT +1100)
Moorebank | | Change Station
CLOSE
Current Station
Personal Weather Station
Location: Moorebank, NSW
Elevation: 72 ft
Nearby Weather Stations

Elev 72 ft 33.93 °S, 150.95 °E | Updated 19 seconds ago

Partly Cloudy
Partly Cloudy
91.0 °F
Feels Like 88 °F
N
5.8
Wind Variable Wind from North
Gusts 10.5 mph

Today
High -- | Low -- °F
--% Chance of Precip.
Yesterday
High -- | Low -- °F
Precip. -- in
Pressure 29.89 in
Visibility 6.2 miles
Clouds Few 4500 ft
Heat Index 88 °F
Dew Point 50 °F
Humidity 25%
Rainfall 0.00 in
Snow Depth Not available.
6:28 AM 7:51 PM
Waxing Crescent, 26% visible
METAR YSSY 130200Z 05010KT 9999 FEW045 29/17 Q1012 NOSIG
Pressure 29.89 in
Visibility 6.2 miles
Clouds Few 4500 ft
Heat Index 88 °F
Dew Point 50 °F
Humidity 25%
Rainfall 0.00 in
Snow Depth Not available.
6:28 AM 7:51 PM
Waxing Crescent, 26% visible
METAR YSSY 130200Z 05010KT 9999 FEW045 29/17 Q1012 NOSIG

10-Day Weather Forecast

Almanac

Astronomy

Feb. 13, 2016 Rise Set
Actual Time
Civil Twilight
Nautical Twilight
Astronomical Twilight
Moon
Length of Visible Light
Length of Day
Tomorrow will be .
, % of the Moon is Illuminated

Today's Extremes

Country Highs Country Lows

Community

WunderPhotos

Upload Photos

1,892,464 photos uploaded!

WunderBlog® & News

Nearby

Air Quality

  Air Quality AQ Index Pollutant
Not available.

Snow Depth

Station Depth Elevation

Earthquake Activity

City Distance Mag. Time & Date
Minimum magnitude displayed is 2.5.

Coastal Water Temperatures

Place Temperature

Stations

Nearby Weather Stations

Station Location Temp. Windchill Dew Point Humidity Wind Precip. Elev Updated Type